sensor_id;sensor_type;location;lat;lon;timestamp;temperature;humidity
52869;DHT22;39100;53.480;6.158;2022-09-01T00:01:37;16.70;99.90
52869;DHT22;39100;53.480;6.158;2022-09-01T00:04:06;16.70;99.90
52869;DHT22;39100;53.480;6.158;2022-09-01T00:06:34;16.60;99.90
52869;DHT22;39100;53.480;6.158;2022-09-01T00:09:03;16.60;99.90
52869;DHT22;39100;53.480;6.158;2022-09-01T00:11:30;16.60;99.90
52869;DHT22;39100;53.480;6.158;2022-09-01T00:13:56;16.60;99.90
52869;DHT22;39100;53.480;6.158;2022-09-01T00:16:22;16.60;99.90
52869;DHT22;39100;53.480;6.158;2022-09-01T00:18:49;16.60;99.90
52869;DHT22;39100;53.480;6.158;2022-09-01T00:21:18;16.60;99.90
52869;DHT22;39100;53.480;6.158;2022-09-01T00:23:44;16.60;99.90
52869;DHT22;39100;53.480;6.158;2022-09-01T00:26:10;16.60;99.90
52869;DHT22;39100;53.480;6.158;2022-09-01T00:28:37;16.50;99.90
52869;DHT22;39100;53.480;6.158;2022-09-01T00:31:04;16.50;99.90
52869;DHT22;39100;53.480;6.158;2022-09-01T00:33:31;16.50;99.90
52869;DHT22;39100;53.480;6.158;2022-09-01T00:35:57;16.50;99.90
52869;DHT22;39100;53.480;6.158;2022-09-01T00:38:24;16.40;99.90
52869;DHT22;39100;53.480;6.158;2022-09-01T00:40:49;16.40;99.90
52869;DHT22;39100;53.480;6.158;2022-09-01T00:46:20;16.40;99.90
52869;DHT22;39100;53.480;6.158;2022-09-01T00:48:50;16.40;99.90
52869;DHT22;39100;53.480;6.158;2022-09-01T00:51:17;16.40;99.90
52869;DHT22;39100;53.480;6.158;2022-09-01T00:53:43;16.40;99.90
52869;DHT22;39100;53.480;6.158;2022-09-01T00:56:11;16.40;99.90
52869;DHT22;39100;53.480;6.158;2022-09-01T00:58:38;16.40;99.90
52869;DHT22;39100;53.480;6.158;2022-09-01T01:01:08;16.40;99.90
52869;DHT22;39100;53.480;6.158;2022-09-01T01:03:35;16.40;99.90
52869;DHT22;39100;53.480;6.158;2022-09-01T01:06:05;16.40;99.90
52869;DHT22;39100;53.480;6.158;2022-09-01T01:08:34;16.40;99.90
52869;DHT22;39100;53.480;6.158;2022-09-01T01:11:06;16.30;99.90
52869;DHT22;39100;53.480;6.158;2022-09-01T01:13:48;16.40;99.90
52869;DHT22;39100;53.480;6.158;2022-09-01T01:16:16;16.30;99.90
52869;DHT22;39100;53.480;6.158;2022-09-01T01:18:42;16.30;99.90
52869;DHT22;39100;53.480;6.158;2022-09-01T01:21:16;16.30;99.90
52869;DHT22;39100;53.480;6.158;2022-09-01T01:24:46;16.30;99.90
52869;DHT22;39100;53.480;6.158;2022-09-01T01:26:46;16.20;99.90
52869;DHT22;39100;53.480;6.158;2022-09-01T01:29:12;16.20;99.90
52869;DHT22;39100;53.480;6.158;2022-09-01T01:31:38;16.20;99.90
52869;DHT22;39100;53.480;6.158;2022-09-01T01:34:04;16.30;99.90
52869;DHT22;39100;53.480;6.158;2022-09-01T01:36:35;16.20;99.90
52869;DHT22;39100;53.480;6.158;2022-09-01T01:39:12;16.20;99.90
52869;DHT22;39100;53.480;6.158;2022-09-01T01:41:39;16.20;99.90
52869;DHT22;39100;53.480;6.158;2022-09-01T01:44:09;16.10;99.90
52869;DHT22;39100;53.480;6.158;2022-09-01T01:46:40;16.20;99.90
52869;DHT22;39100;53.480;6.158;2022-09-01T01:49:08;16.20;99.90
52869;DHT22;39100;53.480;6.158;2022-09-01T01:51:34;16.20;99.90
52869;DHT22;39100;53.480;6.158;2022-09-01T01:54:01;16.20;99.90
52869;DHT22;39100;53.480;6.158;2022-09-01T01:56:30;16.20;99.90
52869;DHT22;39100;53.480;6.158;2022-09-01T01:58:57;16.20;99.90
52869;DHT22;39100;53.480;6.158;2022-09-01T02:01:25;16.20;99.90
52869;DHT22;39100;53.480;6.158;2022-09-01T02:03:54;16.20;99.90
52869;DHT22;39100;53.480;6.158;2022-09-01T02:06:22;16.20;99.90
52869;DHT22;39100;53.480;6.158;2022-09-01T02:08:51;16.20;99.90
52869;DHT22;39100;53.480;6.158;2022-09-01T02:11:17;16.20;99.90
52869;DHT22;39100;53.480;6.158;2022-09-01T02:13:43;16.10;99.90
52869;DHT22;39100;53.480;6.158;2022-09-01T02:16:11;16.20;99.90
52869;DHT22;39100;53.480;6.158;2022-09-01T02:18:40;16.20;99.90
52869;DHT22;39100;53.480;6.158;2022-09-01T02:21:08;16.20;99.90
52869;DHT22;39100;53.480;6.158;2022-09-01T02:23:37;16.20;99.90
52869;DHT22;39100;53.480;6.158;2022-09-01T02:26:03;16.20;99.90
52869;DHT22;39100;53.480;6.158;2022-09-01T02:28:32;16.20;99.90
52869;DHT22;39100;53.480;6.158;2022-09-01T02:30:59;16.20;99.90
52869;DHT22;39100;53.480;6.158;2022-09-01T02:33:29;16.20;99.90
52869;DHT22;39100;53.480;6.158;2022-09-01T02:35:59;16.10;99.90
52869;DHT22;39100;53.480;6.158;2022-09-01T02:38:26;16.20;99.90
52869;DHT22;39100;53.480;6.158;2022-09-01T02:40:55;16.20;99.90
52869;DHT22;39100;53.480;6.158;2022-09-01T02:43:21;16.20;99.90
52869;DHT22;39100;53.480;6.158;2022-09-01T02:45:49;16.20;99.90
52869;DHT22;39100;53.480;6.158;2022-09-01T02:48:20;16.20;99.90
52869;DHT22;39100;53.480;6.158;2022-09-01T02:50:51;16.20;99.90
52869;DHT22;39100;53.480;6.158;2022-09-01T02:53:17;16.20;99.90
52869;DHT22;39100;53.480;6.158;2022-09-01T02:55:45;16.20;99.90
52869;DHT22;39100;53.480;6.158;2022-09-01T02:58:10;16.20;99.90
52869;DHT22;39100;53.480;6.158;2022-09-01T03:00:44;16.20;99.90
52869;DHT22;39100;53.480;6.158;2022-09-01T03:03:10;16.20;99.90
52869;DHT22;39100;53.480;6.158;2022-09-01T03:05:41;16.20;99.90
52869;DHT22;39100;53.480;6.158;2022-09-01T03:08:09;16.20;99.90
52869;DHT22;39100;53.480;6.158;2022-09-01T03:10:37;16.20;99.90
52869;DHT22;39100;53.480;6.158;2022-09-01T03:13:20;16.30;99.90
52869;DHT22;39100;53.480;6.158;2022-09-01T03:15:46;16.80;99.90
52869;DHT22;39100;53.480;6.158;2022-09-01T03:18:13;16.30;99.90
52869;DHT22;39100;53.480;6.158;2022-09-01T03:20:42;16.30;99.90
52869;DHT22;39100;53.480;6.158;2022-09-01T03:23:13;16.30;99.90
52869;DHT22;39100;53.480;6.158;2022-09-01T03:25:43;16.30;99.90
52869;DHT22;39100;53.480;6.158;2022-09-01T03:28:10;16.30;99.90
52869;DHT22;39100;53.480;6.158;2022-09-01T03:30:38;16.30;99.90
52869;DHT22;39100;53.480;6.158;2022-09-01T03:33:05;16.30;99.90
52869;DHT22;39100;53.480;6.158;2022-09-01T03:35:31;16.30;99.90
52869;DHT22;39100;53.480;6.158;2022-09-01T03:37:58;16.30;99.90
52869;DHT22;39100;53.480;6.158;2022-09-01T03:40:26;16.30;99.90
52869;DHT22;39100;53.480;6.158;2022-09-01T03:42:55;16.30;99.90
52869;DHT22;39100;53.480;6.158;2022-09-01T03:45:21;16.30;99.90
52869;DHT22;39100;53.480;6.158;2022-09-01T03:47:53;16.30;99.90
52869;DHT22;39100;53.480;6.158;2022-09-01T03:50:21;16.30;99.90
52869;DHT22;39100;53.480;6.158;2022-09-01T03:52:53;16.40;99.90
52869;DHT22;39100;53.480;6.158;2022-09-01T03:55:22;16.20;99.90
52869;DHT22;39100;53.480;6.158;2022-09-01T03:57:52;16.20;99.90
52869;DHT22;39100;53.480;6.158;2022-09-01T04:00:19;16.20;99.90
52869;DHT22;39100;53.480;6.158;2022-09-01T04:02:51;16.20;99.90
52869;DHT22;39100;53.480;6.158;2022-09-01T04:05:21;16.10;99.90
52869;DHT22;39100;53.480;6.158;2022-09-01T04:07:49;16.10;99.90
52869;DHT22;39100;53.480;6.158;2022-09-01T04:10:16;16.10;99.90
52869;DHT22;39100;53.480;6.158;2022-09-01T04:12:43;16.00;99.90
52869;DHT22;39100;53.480;6.158;2022-09-01T04:15:11;16.00;99.90
52869;DHT22;39100;53.480;6.158;2022-09-01T04:17:36;16.00;99.90
52869;DHT22;39100;53.480;6.158;2022-09-01T04:20:39;15.90;99.90
52869;DHT22;39100;53.480;6.158;2022-09-01T04:23:29;15.90;99.90
52869;DHT22;39100;53.480;6.158;2022-09-01T04:25:57;15.80;99.90
52869;DHT22;39100;53.480;6.158;2022-09-01T04:28:31;15.70;99.90
52869;DHT22;39100;53.480;6.158;2022-09-01T04:30:59;15.60;99.90
52869;DHT22;39100;53.480;6.158;2022-09-01T04:33:32;15.60;99.90
52869;DHT22;39100;53.480;6.158;2022-09-01T04:36:25;15.50;99.90
52869;DHT22;39100;53.480;6.158;2022-09-01T04:38:58;15.50;99.90
52869;DHT22;39100;53.480;6.158;2022-09-01T04:41:27;15.50;99.90
52869;DHT22;39100;53.480;6.158;2022-09-01T04:43:55;15.50;99.90
52869;DHT22;39100;53.480;6.158;2022-09-01T04:46:22;15.50;99.90
52869;DHT22;39100;53.480;6.158;2022-09-01T04:48:51;15.50;99.90
52869;DHT22;39100;53.480;6.158;2022-09-01T04:51:17;15.50;99.90
52869;DHT22;39100;53.480;6.158;2022-09-01T04:53:43;15.40;99.90
52869;DHT22;39100;53.480;6.158;2022-09-01T04:56:14;15.50;99.90
52869;DHT22;39100;53.480;6.158;2022-09-01T04:58:44;15.40;99.90
52869;DHT22;39100;53.480;6.158;2022-09-01T05:01:15;15.40;99.90
52869;DHT22;39100;53.480;6.158;2022-09-01T05:03:42;15.40;99.90
52869;DHT22;39100;53.480;6.158;2022-09-01T05:06:18;15.30;99.90
52869;DHT22;39100;53.480;6.158;2022-09-01T05:08:44;15.30;99.90
52869;DHT22;39100;53.480;6.158;2022-09-01T05:11:11;15.30;99.90
52869;DHT22;39100;53.480;6.158;2022-09-01T05:13:42;15.30;99.90
52869;DHT22;39100;53.480;6.158;2022-09-01T05:16:09;15.30;99.90
52869;DHT22;39100;53.480;6.158;2022-09-01T05:18:38;15.20;99.90
52869;DHT22;39100;53.480;6.158;2022-09-01T05:21:07;15.30;99.90
52869;DHT22;39100;53.480;6.158;2022-09-01T05:23:39;15.30;99.90
52869;DHT22;39100;53.480;6.158;2022-09-01T05:26:11;15.30;99.90
52869;DHT22;39100;53.480;6.158;2022-09-01T05:28:41;15.40;99.90
52869;DHT22;39100;53.480;6.158;2022-09-01T05:31:08;15.30;99.90
52869;DHT22;39100;53.480;6.158;2022-09-01T05:33:34;15.40;99.90
52869;DHT22;39100;53.480;6.158;2022-09-01T05:36:02;15.40;99.90
52869;DHT22;39100;53.480;6.158;2022-09-01T05:38:32;15.50;99.90
52869;DHT22;39100;53.480;6.158;2022-09-01T05:41:01;15.50;99.90
52869;DHT22;39100;53.480;6.158;2022-09-01T05:43:29;15.50;99.90
52869;DHT22;39100;53.480;6.158;2022-09-01T05:45:56;15.50;99.90
52869;DHT22;39100;53.480;6.158;2022-09-01T05:48:22;15.50;99.90
52869;DHT22;39100;53.480;6.158;2022-09-01T05:50:50;15.60;99.90
52869;DHT22;39100;53.480;6.158;2022-09-01T05:53:16;15.70;99.90
52869;DHT22;39100;53.480;6.158;2022-09-01T05:55:43;15.70;99.90
52869;DHT22;39100;53.480;6.158;2022-09-01T05:58:13;15.80;99.90
52869;DHT22;39100;53.480;6.158;2022-09-01T06:00:41;15.80;99.90
52869;DHT22;39100;53.480;6.158;2022-09-01T06:03:09;15.90;99.90
52869;DHT22;39100;53.480;6.158;2022-09-01T06:05:35;16.00;99.90
52869;DHT22;39100;53.480;6.158;2022-09-01T06:08:03;16.10;99.90
52869;DHT22;39100;53.480;6.158;2022-09-01T06:10:30;16.20;99.90
52869;DHT22;39100;53.480;6.158;2022-09-01T06:12:56;16.20;99.90
52869;DHT22;39100;53.480;6.158;2022-09-01T06:15:30;16.30;99.90
52869;DHT22;39100;53.480;6.158;2022-09-01T06:17:57;16.40;99.90
52869;DHT22;39100;53.480;6.158;2022-09-01T06:20:23;16.40;99.90
52869;DHT22;39100;53.480;6.158;2022-09-01T06:22:50;16.50;99.90
52869;DHT22;39100;53.480;6.158;2022-09-01T06:25:18;16.50;99.90
52869;DHT22;39100;53.480;6.158;2022-09-01T06:27:45;16.60;99.90
52869;DHT22;39100;53.480;6.158;2022-09-01T06:30:13;16.60;99.90
52869;DHT22;39100;53.480;6.158;2022-09-01T06:32:43;16.70;99.90
52869;DHT22;39100;53.480;6.158;2022-09-01T06:35:13;16.70;99.90
52869;DHT22;39100;53.480;6.158;2022-09-01T06:37:41;16.80;99.90
52869;DHT22;39100;53.480;6.158;2022-09-01T06:40:12;16.80;99.90
52869;DHT22;39100;53.480;6.158;2022-09-01T06:42:49;16.90;99.90
52869;DHT22;39100;53.480;6.158;2022-09-01T06:45:18;17.00;99.90
52869;DHT22;39100;53.480;6.158;2022-09-01T06:47:48;17.00;99.90
52869;DHT22;39100;53.480;6.158;2022-09-01T06:50:17;17.00;99.90
52869;DHT22;39100;53.480;6.158;2022-09-01T06:52:45;17.10;99.90
52869;DHT22;39100;53.480;6.158;2022-09-01T06:55:12;17.20;99.90
52869;DHT22;39100;53.480;6.158;2022-09-01T06:57:39;17.20;99.90
52869;DHT22;39100;53.480;6.158;2022-09-01T07:00:09;17.20;99.90
52869;DHT22;39100;53.480;6.158;2022-09-01T07:02:52;17.20;99.90
52869;DHT22;39100;53.480;6.158;2022-09-01T07:05:19;17.30;99.90
52869;DHT22;39100;53.480;6.158;2022-09-01T07:07:50;17.30;99.90
52869;DHT22;39100;53.480;6.158;2022-09-01T07:10:20;17.30;99.90
52869;DHT22;39100;53.480;6.158;2022-09-01T07:12:55;17.30;99.90
52869;DHT22;39100;53.480;6.158;2022-09-01T07:15:22;17.40;99.90
52869;DHT22;39100;53.480;6.158;2022-09-01T07:17:54;17.40;99.90
52869;DHT22;39100;53.480;6.158;2022-09-01T07:20:23;17.50;99.90
52869;DHT22;39100;53.480;6.158;2022-09-01T07:22:49;17.60;99.90
52869;DHT22;39100;53.480;6.158;2022-09-01T07:25:15;17.60;99.90
52869;DHT22;39100;53.480;6.158;2022-09-01T07:27:43;17.70;99.90
52869;DHT22;39100;53.480;6.158;2022-09-01T07:30:20;17.70;99.90
52869;DHT22;39100;53.480;6.158;2022-09-01T07:32:47;17.80;99.90
52869;DHT22;39100;53.480;6.158;2022-09-01T07:35:16;17.80;99.90
52869;DHT22;39100;53.480;6.158;2022-09-01T07:37:42;18.00;99.90
52869;DHT22;39100;53.480;6.158;2022-09-01T07:40:11;18.00;99.90
52869;DHT22;39100;53.480;6.158;2022-09-01T07:42:47;18.00;99.90
52869;DHT22;39100;53.480;6.158;2022-09-01T07:45:17;18.10;99.90
52869;DHT22;39100;53.480;6.158;2022-09-01T07:47:44;18.10;99.90
52869;DHT22;39100;53.480;6.158;2022-09-01T07:50:11;18.20;99.90
52869;DHT22;39100;53.480;6.158;2022-09-01T07:52:40;18.20;99.90
52869;DHT22;39100;53.480;6.158;2022-09-01T07:55:10;18.60;99.90
52869;DHT22;39100;53.480;6.158;2022-09-01T07:57:38;18.80;99.90
52869;DHT22;39100;53.480;6.158;2022-09-01T08:00:07;19.00;99.90
52869;DHT22;39100;53.480;6.158;2022-09-01T08:02:33;19.00;99.90
52869;DHT22;39100;53.480;6.158;2022-09-01T08:04:59;19.00;99.90
52869;DHT22;39100;53.480;6.158;2022-09-01T08:07:25;18.90;99.90
52869;DHT22;39100;53.480;6.158;2022-09-01T08:09:50;19.10;99.90
52869;DHT22;39100;53.480;6.158;2022-09-01T08:12:16;18.80;99.90
52869;DHT22;39100;53.480;6.158;2022-09-01T08:14:41;18.90;99.90
52869;DHT22;39100;53.480;6.158;2022-09-01T08:17:07;18.90;99.90
52869;DHT22;39100;53.480;6.158;2022-09-01T08:19:33;19.00;99.90
52869;DHT22;39100;53.480;6.158;2022-09-01T08:21:58;19.10;99.90
52869;DHT22;39100;53.480;6.158;2022-09-01T08:24:25;19.20;99.90
52869;DHT22;39100;53.480;6.158;2022-09-01T08:26:51;19.30;99.90
52869;DHT22;39100;53.480;6.158;2022-09-01T08:29:16;19.60;99.90
52869;DHT22;39100;53.480;6.158;2022-09-01T08:31:42;19.40;99.90
52869;DHT22;39100;53.480;6.158;2022-09-01T08:34:07;19.50;99.90
52869;DHT22;39100;53.480;6.158;2022-09-01T08:36:35;19.60;99.90
52869;DHT22;39100;53.480;6.158;2022-09-01T08:39:01;19.90;99.90
52869;DHT22;39100;53.480;6.158;2022-09-01T08:46:31;21.70;99.90
52869;DHT22;39100;53.480;6.158;2022-09-01T08:49:00;21.90;99.90
52869;DHT22;39100;53.480;6.158;2022-09-01T08:51:36;22.10;99.90
52869;DHT22;39100;53.480;6.158;2022-09-01T08:56:34;22.50;99.90
52869;DHT22;39100;53.480;6.158;2022-09-01T08:59:01;22.70;99.90
52869;DHT22;39100;53.480;6.158;2022-09-01T09:01:38;22.70;99.90
52869;DHT22;39100;53.480;6.158;2022-09-01T09:04:14;23.00;99.90
52869;DHT22;39100;53.480;6.158;2022-09-01T09:06:59;23.30;99.90
52869;DHT22;39100;53.480;6.158;2022-09-01T09:12:35;23.60;99.90
52869;DHT22;39100;53.480;6.158;2022-09-01T09:17:42;23.40;99.90
52869;DHT22;39100;53.480;6.158;2022-09-01T09:20:09;23.20;99.90
52869;DHT22;39100;53.480;6.158;2022-09-01T09:22:35;23.00;99.90
52869;DHT22;39100;53.480;6.158;2022-09-01T09:25:13;22.90;99.90
52869;DHT22;39100;53.480;6.158;2022-09-01T09:27:49;22.70;99.90
52869;DHT22;39100;53.480;6.158;2022-09-01T09:30:19;22.50;99.90
52869;DHT22;39100;53.480;6.158;2022-09-01T09:35:30;22.30;99.90
52869;DHT22;39100;53.480;6.158;2022-09-01T09:38:22;22.20;99.90
52869;DHT22;39100;53.480;6.158;2022-09-01T09:43:42;22.00;99.90
52869;DHT22;39100;53.480;6.158;2022-09-01T09:46:33;22.00;99.90
52869;DHT22;39100;53.480;6.158;2022-09-01T09:49:15;21.90;99.90
52869;DHT22;39100;53.480;6.158;2022-09-01T09:51:46;22.00;99.90
52869;DHT22;39100;53.480;6.158;2022-09-01T09:54:20;22.30;99.90
52869;DHT22;39100;53.480;6.158;2022-09-01T09:56:47;22.20;99.90
52869;DHT22;39100;53.480;6.158;2022-09-01T10:00:05;22.40;99.90
52869;DHT22;39100;53.480;6.158;2022-09-01T10:02:36;22.60;99.90
52869;DHT22;39100;53.480;6.158;2022-09-01T10:05:46;23.00;99.90
52869;DHT22;39100;53.480;6.158;2022-09-01T10:08:43;23.20;99.90
52869;DHT22;39100;53.480;6.158;2022-09-01T10:11:23;23.30;99.90
52869;DHT22;39100;53.480;6.158;2022-09-01T10:13:52;23.30;99.90
52869;DHT22;39100;53.480;6.158;2022-09-01T10:16:23;23.40;99.90
52869;DHT22;39100;53.480;6.158;2022-09-01T10:18:50;23.90;99.90
52869;DHT22;39100;53.480;6.158;2022-09-01T10:21:37;23.50;99.90
52869;DHT22;39100;53.480;6.158;2022-09-01T10:24:31;23.80;99.90
52869;DHT22;39100;53.480;6.158;2022-09-01T10:27:18;23.80;99.90
52869;DHT22;39100;53.480;6.158;2022-09-01T10:29:54;23.70;99.90
52869;DHT22;39100;53.480;6.158;2022-09-01T10:32:26;23.80;99.90
52869;DHT22;39100;53.480;6.158;2022-09-01T10:34:53;24.00;99.90
52869;DHT22;39100;53.480;6.158;2022-09-01T10:37:20;23.80;99.90
52869;DHT22;39100;53.480;6.158;2022-09-01T10:42:47;23.90;99.90
52869;DHT22;39100;53.480;6.158;2022-09-01T10:45:36;24.10;99.90
52869;DHT22;39100;53.480;6.158;2022-09-01T10:48:30;24.20;99.90
52869;DHT22;39100;53.480;6.158;2022-09-01T10:53:57;24.40;99.90
52869;DHT22;39100;53.480;6.158;2022-09-01T10:56:59;24.60;99.90
52869;DHT22;39100;53.480;6.158;2022-09-01T10:59:27;24.60;99.90
52869;DHT22;39100;53.480;6.158;2022-09-01T11:07:02;25.40;99.90
52869;DHT22;39100;53.480;6.158;2022-09-01T11:09:39;25.40;99.90
52869;DHT22;39100;53.480;6.158;2022-09-01T11:14:32;25.80;99.90
52869;DHT22;39100;53.480;6.158;2022-09-01T11:27:07;25.80;99.90
52869;DHT22;39100;53.480;6.158;2022-09-01T11:29:58;25.80;99.90
52869;DHT22;39100;53.480;6.158;2022-09-01T11:32:33;25.90;99.90
52869;DHT22;39100;53.480;6.158;2022-09-01T11:35:02;25.80;99.90
52869;DHT22;39100;53.480;6.158;2022-09-01T11:37:29;25.80;99.90
52869;DHT22;39100;53.480;6.158;2022-09-01T11:40:01;25.70;99.90
52869;DHT22;39100;53.480;6.158;2022-09-01T11:42:32;25.30;99.90
52869;DHT22;39100;53.480;6.158;2022-09-01T11:45:06;24.90;99.90
52869;DHT22;39100;53.480;6.158;2022-09-01T11:47:45;24.80;99.90
52869;DHT22;39100;53.480;6.158;2022-09-01T11:50:29;25.00;99.90
52869;DHT22;39100;53.480;6.158;2022-09-01T11:52:59;25.40;99.90
52869;DHT22;39100;53.480;6.158;2022-09-01T11:55:45;25.20;99.90
52869;DHT22;39100;53.480;6.158;2022-09-01T11:58:30;25.40;99.90
52869;DHT22;39100;53.480;6.158;2022-09-01T12:01:15;25.40;99.90
52869;DHT22;39100;53.480;6.158;2022-09-01T12:03:41;25.70;99.90
52869;DHT22;39100;53.480;6.158;2022-09-01T12:06:10;26.10;99.90
52869;DHT22;39100;53.480;6.158;2022-09-01T12:08:39;26.20;99.90
52869;DHT22;39100;53.480;6.158;2022-09-01T12:11:19;25.90;99.90
52869;DHT22;39100;53.480;6.158;2022-09-01T12:14:03;25.50;99.90
52869;DHT22;39100;53.480;6.158;2022-09-01T12:16:30;25.10;99.90
52869;DHT22;39100;53.480;6.158;2022-09-01T12:18:59;25.00;99.90
52869;DHT22;39100;53.480;6.158;2022-09-01T12:21:35;25.50;99.90
52869;DHT22;39100;53.480;6.158;2022-09-01T12:24:19;25.90;99.90
52869;DHT22;39100;53.480;6.158;2022-09-01T12:26:48;25.80;99.90
52869;DHT22;39100;53.480;6.158;2022-09-01T12:29:15;25.50;99.90
52869;DHT22;39100;53.480;6.158;2022-09-01T12:31:46;25.50;99.90
52869;DHT22;39100;53.480;6.158;2022-09-01T12:34:26;25.80;99.90
52869;DHT22;39100;53.480;6.158;2022-09-01T12:37:19;26.40;99.90
52869;DHT22;39100;53.480;6.158;2022-09-01T12:39:53;26.90;99.90
52869;DHT22;39100;53.480;6.158;2022-09-01T12:44:50;26.00;99.90
52869;DHT22;39100;53.480;6.158;2022-09-01T12:49:58;25.50;99.90
52869;DHT22;39100;53.480;6.158;2022-09-01T12:52:26;26.80;99.90
52869;DHT22;39100;53.480;6.158;2022-09-01T12:55:07;27.40;99.90
52869;DHT22;39100;53.480;6.158;2022-09-01T12:57:39;28.70;99.90
52869;DHT22;39100;53.480;6.158;2022-09-01T13:02:41;29.80;99.90
52869;DHT22;39100;53.480;6.158;2022-09-01T13:08:10;30.30;99.90
52869;DHT22;39100;53.480;6.158;2022-09-01T13:10:42;30.10;99.90
52869;DHT22;39100;53.480;6.158;2022-09-01T13:13:09;29.70;99.90
52869;DHT22;39100;53.480;6.158;2022-09-01T13:15:37;29.60;99.90
52869;DHT22;39100;53.480;6.158;2022-09-01T13:18:03;29.70;99.90
52869;DHT22;39100;53.480;6.158;2022-09-01T13:20:29;29.60;99.90
52869;DHT22;39100;53.480;6.158;2022-09-01T13:22:54;29.70;99.90
52869;DHT22;39100;53.480;6.158;2022-09-01T13:25:22;29.70;99.90
52869;DHT22;39100;53.480;6.158;2022-09-01T13:27:48;29.90;99.90
52869;DHT22;39100;53.480;6.158;2022-09-01T13:30:16;30.20;99.90
52869;DHT22;39100;53.480;6.158;2022-09-01T13:32:43;29.70;99.90
52869;DHT22;39100;53.480;6.158;2022-09-01T13:35:11;29.40;99.90
52869;DHT22;39100;53.480;6.158;2022-09-01T13:37:37;28.70;99.90
52869;DHT22;39100;53.480;6.158;2022-09-01T13:40:04;28.70;99.90
52869;DHT22;39100;53.480;6.158;2022-09-01T13:42:32;28.20;99.90
52869;DHT22;39100;53.480;6.158;2022-09-01T13:44:57;28.00;99.90
52869;DHT22;39100;53.480;6.158;2022-09-01T13:47:23;27.70;99.90
52869;DHT22;39100;53.480;6.158;2022-09-01T13:49:49;27.60;99.90
52869;DHT22;39100;53.480;6.158;2022-09-01T13:52:15;27.20;99.90
52869;DHT22;39100;53.480;6.158;2022-09-01T13:54:41;27.20;99.90
52869;DHT22;39100;53.480;6.158;2022-09-01T13:57:09;27.00;99.90
52869;DHT22;39100;53.480;6.158;2022-09-01T13:59:36;26.90;99.90
52869;DHT22;39100;53.480;6.158;2022-09-01T14:02:02;27.00;99.90
52869;DHT22;39100;53.480;6.158;2022-09-01T14:04:28;26.70;99.90
52869;DHT22;39100;53.480;6.158;2022-09-01T14:06:54;26.70;99.90
52869;DHT22;39100;53.480;6.158;2022-09-01T14:09:20;26.60;99.90
52869;DHT22;39100;53.480;6.158;2022-09-01T14:11:45;26.50;99.90
52869;DHT22;39100;53.480;6.158;2022-09-01T14:14:11;26.60;99.90
52869;DHT22;39100;53.480;6.158;2022-09-01T14:16:37;26.50;99.90
52869;DHT22;39100;53.480;6.158;2022-09-01T14:19:03;26.30;99.90
52869;DHT22;39100;53.480;6.158;2022-09-01T14:21:28;26.30;99.90
52869;DHT22;39100;53.480;6.158;2022-09-01T14:23:54;26.20;99.90
52869;DHT22;39100;53.480;6.158;2022-09-01T14:26:19;26.00;99.90
52869;DHT22;39100;53.480;6.158;2022-09-01T14:28:46;26.10;99.90
52869;DHT22;39100;53.480;6.158;2022-09-01T14:31:14;25.80;99.90
52869;DHT22;39100;53.480;6.158;2022-09-01T14:33:40;25.60;99.90
52869;DHT22;39100;53.480;6.158;2022-09-01T14:36:07;25.80;99.90
52869;DHT22;39100;53.480;6.158;2022-09-01T14:38:34;25.60;99.90
52869;DHT22;39100;53.480;6.158;2022-09-01T14:41:00;25.40;99.90
52869;DHT22;39100;53.480;6.158;2022-09-01T14:43:26;25.30;99.90
52869;DHT22;39100;53.480;6.158;2022-09-01T14:46:06;25.40;99.90
52869;DHT22;39100;53.480;6.158;2022-09-01T14:48:33;25.00;99.90
52869;DHT22;39100;53.480;6.158;2022-09-01T14:50:59;24.90;99.90
52869;DHT22;39100;53.480;6.158;2022-09-01T14:53:27;24.70;99.90
52869;DHT22;39100;53.480;6.158;2022-09-01T14:55:54;24.70;99.90
52869;DHT22;39100;53.480;6.158;2022-09-01T14:58:20;24.80;99.90
52869;DHT22;39100;53.480;6.158;2022-09-01T15:00:46;24.80;99.90
52869;DHT22;39100;53.480;6.158;2022-09-01T15:03:12;25.00;99.90
52869;DHT22;39100;53.480;6.158;2022-09-01T15:05:38;25.00;99.90
52869;DHT22;39100;53.480;6.158;2022-09-01T15:08:06;24.60;99.90
52869;DHT22;39100;53.480;6.158;2022-09-01T15:10:32;24.60;99.90
52869;DHT22;39100;53.480;6.158;2022-09-01T15:12:59;24.60;99.90
52869;DHT22;39100;53.480;6.158;2022-09-01T15:15:27;24.70;99.90
52869;DHT22;39100;53.480;6.158;2022-09-01T15:17:53;24.50;99.90
52869;DHT22;39100;53.480;6.158;2022-09-01T15:20:19;24.40;99.90
52869;DHT22;39100;53.480;6.158;2022-09-01T15:23:04;24.30;99.90
52869;DHT22;39100;53.480;6.158;2022-09-01T15:25:30;24.20;99.90
52869;DHT22;39100;53.480;6.158;2022-09-01T15:27:55;24.00;99.90
52869;DHT22;39100;53.480;6.158;2022-09-01T15:30:21;24.00;99.90
52869;DHT22;39100;53.480;6.158;2022-09-01T15:32:50;24.00;99.90
52869;DHT22;39100;53.480;6.158;2022-09-01T15:35:16;23.90;99.90
52869;DHT22;39100;53.480;6.158;2022-09-01T15:37:44;23.80;99.90
52869;DHT22;39100;53.480;6.158;2022-09-01T15:40:10;23.70;99.90
52869;DHT22;39100;53.480;6.158;2022-09-01T15:42:36;23.60;99.90
52869;DHT22;39100;53.480;6.158;2022-09-01T15:45:06;23.60;99.90
52869;DHT22;39100;53.480;6.158;2022-09-01T15:47:33;23.50;99.90
52869;DHT22;39100;53.480;6.158;2022-09-01T15:49:58;23.50;99.90
52869;DHT22;39100;53.480;6.158;2022-09-01T15:52:24;23.60;99.90
52869;DHT22;39100;53.480;6.158;2022-09-01T15:54:52;23.50;99.90
52869;DHT22;39100;53.480;6.158;2022-09-01T15:57:17;23.40;99.90
52869;DHT22;39100;53.480;6.158;2022-09-01T15:59:43;23.50;99.90
52869;DHT22;39100;53.480;6.158;2022-09-01T16:02:10;23.30;99.90
52869;DHT22;39100;53.480;6.158;2022-09-01T16:04:36;23.40;99.90
52869;DHT22;39100;53.480;6.158;2022-09-01T16:07:02;23.50;99.90
52869;DHT22;39100;53.480;6.158;2022-09-01T16:09:27;23.10;99.90
52869;DHT22;39100;53.480;6.158;2022-09-01T16:11:53;23.00;99.90
52869;DHT22;39100;53.480;6.158;2022-09-01T16:14:19;22.90;99.90
52869;DHT22;39100;53.480;6.158;2022-09-01T16:16:51;22.80;99.90
52869;DHT22;39100;53.480;6.158;2022-09-01T16:22:33;22.50;99.90
52869;DHT22;39100;53.480;6.158;2022-09-01T16:25:03;22.40;99.90
52869;DHT22;39100;53.480;6.158;2022-09-01T16:27:39;22.30;99.90
52869;DHT22;39100;53.480;6.158;2022-09-01T16:30:12;22.20;99.90
52869;DHT22;39100;53.480;6.158;2022-09-01T16:32:41;22.00;99.90
52869;DHT22;39100;53.480;6.158;2022-09-01T16:35:07;22.00;99.90
52869;DHT22;39100;53.480;6.158;2022-09-01T16:38:11;21.80;99.90
52869;DHT22;39100;53.480;6.158;2022-09-01T16:41:14;21.80;99.90
52869;DHT22;39100;53.480;6.158;2022-09-01T16:43:48;21.60;99.90
52869;DHT22;39100;53.480;6.158;2022-09-01T16:46:34;21.60;99.90
52869;DHT22;39100;53.480;6.158;2022-09-01T16:49:11;22.10;99.90